Odell, Texas
Current Conditions -  °F | °C
As of 10:16 PM on Friday 24 Oct 2014 (Local Time) from KF05 Reporting Station
Clear Clear  
Wind Chill: 72°   Ceiling: Unl
Heat Index: 72°   Visibility: 10mi
Dew Point: 55°   Wind: 8mph
Humidity: 57%   Direction: 190°S
Pressure: 30.06"   Gusts: NA
Location:  34.35°N, 99.42°W
Report Text: KF05 250316Z AUTO 19007KT 10SM CLR 22/13 A3006 RMK AO2
Loading
Personal Weather Stations






























Interactive Weather Map
Tropical Storm Tracking
New forecast layout! Learn more

10-Day Weather Forecast

Advertisements
Track Severe Weather on mobile